Sincerity Ace — 3FFD7 — position and weather

sailwx.info

Track history (hours):
 
Tides and Currents Weather Stations Pressure Air Temp Water Temp Dewpoint Dewpoint Depression Visibility Wind Speed Wind Dir Waves Ship Positions

Sincerity Ace

Last reported at 2016-Jul-27 14:32 UTC. Time now 2016-Jul-27 15:22 UTC.
Position N 51°18' E 003°14'.

Length 200 m; draft 9.3 m.

Type: Cargo ship. MMSI: 351690000.

Date/timePositionNaut miles runAvg speedWind from/ knotsBaromVisibWave heightAir tempDewpointWater temp
2016-Jul-27 14:32N 51°18' E 003°14'0 0.0
2016-Jul-27 13:32N 51°18' E 003°14'0 0.0
2016-Jul-27 12:32N 51°18' E 003°14'0 0.0
2016-Jul-27 11:32N 51°18' E 003°14'0 0.0
2016-Jul-27 10:32N 51°18' E 003°14'0 0.0
2016-Jul-27 09:32N 51°18' E 003°14'0 0.0
2016-Jul-27 08:32N 51°18' E 003°14'0 0.0
2016-Jul-27 07:32N 51°18' E 003°14'0 0.0
2016-Jul-27 06:32N 51°18' E 003°14'0 0.0
2016-Jul-27 05:32N 51°18' E 003°14'2 1.6
2016-Jul-27 04:31N 51°20' E 003°13'1 1.2
2016-Jul-27 03:33N 51°21' E 003°12'1111.3
2016-Jul-27 02:34N 51°22' E 002°54'1111.4
2016-Jul-27 01:33N 51°22' E 002°36'1211.7
2016-Jul-27 00:33N 51°18' E 002°18'1515.1
2016-Jul-26 23:33N 51°11' E 001°57'1616.0
2016-Jul-26 22:33N 51°02' E 001°36'1716.6
2016-Jul-26 21:33N 50°47' E 001°24'3416.3
2016-Jul-26 19:28N 50°25' E 000°43'1617.0
2016-Jul-26 18:32N 50°21' E 000°19'1717.0
2016-Jul-26 17:33N 50°20' W 000°07'1716.9
2016-Jul-26 16:33N 50°20' W 000°34'2017.9
2016-Jul-26 15:24N 50°20' W 001°06'1719.0
2016-Jul-26 14:32N 50°21' W 001°32'1919.8
2016-Jul-26 13:33N 50°22' W 002°02'2020.4
2016-Jul-26 12:34N 50°23' W 002°34'1918.7
2016-Jul-26 11:34N 50°25' W 003°03'1515.3
2016-Jul-26 10:33N 50°24' W 003°27'10 9.5
2016-Jul-26 09:33N 50°15' W 003°28'1818.2
2016-Jul-26 08:33N 50°01' W 003°46'1818.1
2016-Jul-26 07:33N 49°48' W 004°06'7217.3
2016-Jul-26 03:23N 48°56' W 005°23'2015.3
2016-Jul-26 02:05N 48°40' W 005°42'914.7
2016-Jul-26 01:28N 48°33' W 005°49'3115.8
2016-Jul-25 23:32N 48°05' W 006°09'3316.6
2016-Jul-25 21:33N 47°36' W 006°32'51016.9
2016-Jul-24 15:25N 39°27' W 009°51'1517.3
2016-Jul-24 14:33N 39°12' W 009°51'1717.3
2016-Jul-24 13:33N 38°54' W 009°52'1717.4
2016-Jul-24 12:33N 38°37' W 009°50'1717.3
2016-Jul-24 11:33N 38°20' W 009°46'1717.5
2016-Jul-24 10:33N 38°03' W 009°40'1817.8
2016-Jul-24 09:33N 37°46' W 009°35'1817.6
2016-Jul-24 08:33N 37°29' W 009°30'2318.2
2016-Jul-24 07:16N 37°06' W 009°24'4516.5
2016-Jul-24 04:33N 36°37' W 008°41'1818.0
2016-Jul-24 03:33N 36°31' W 008°20'1818.2
2016-Jul-24 02:33N 36°25' W 007°58'12017.2
2016-Jul-23 19:34N 35°58' W 005°33'1616.4
2016-Jul-23 18:34N 36°03' W 005°14'12317.3
2016-Jul-23 11:25N 36°21' W 002°43'1517.8
2016-Jul-23 10:33N 36°23' W 002°24'5417.9
2016-Jul-23 07:31N 36°55' W 001°28'2519.0
2016-Jul-23 06:13N 37°12' W 001°06'3018.2
2016-Jul-23 04:33N 37°32' W 000°37'1818.3
2016-Jul-23 03:33N 37°46' W 000°23'2118.4
2016-Jul-23 02:23N 38°04' W 000°09'10417.7
2016-Jul-22 20:29N 39°34' E 000°59'1617.2
2016-Jul-22 19:33N 39°48' E 001°09'1717.4
2016-Jul-22 18:33N 40°04' E 001°19'1717.4
2016-Jul-22 17:33N 40°19' E 001°30'1717.2
2016-Jul-22 16:33N 40°34' E 001°41'1717.6
2016-Jul-22 15:33N 40°50' E 001°52'1817.5
2016-Jul-22 14:33N 41°05' E 002°03'1514.5
2016-Jul-22 13:33N 41°19' E 002°10'2 1.9
2016-Jul-22 12:32N 41°20' E 002°09'0 0.0
2016-Jul-22 11:26N 41°20' E 002°09'0 0.0
2016-Jul-22 08:14N 41°20' E 002°09'0 0.0
2016-Jul-22 07:32N 41°20' E 002°09'0 0.0
2016-Jul-22 04:26N 41°20' E 002°09'0 0.0
2016-Jul-22 03:23N 41°20' E 002°09'0 0.5
2016-Jul-22 02:33N 41°20' E 002°09'6 6.2
2016-Jul-22 01:33N 41°15' E 002°13'5 4.6
2016-Jul-22 00:33N 41°12' E 002°17'1 1.0
2016-Jul-21 23:33N 41°11' E 002°18'1 0.9
2016-Jul-21 22:33N 41°11' E 002°19'1 0.9
2016-Jul-21 21:33N 41°11' E 002°20'1 0.8
2016-Jul-21 20:33N 41°10' E 002°21'1 0.6
2016-Jul-21 19:33N 41°10' E 002°22'1 0.6
2016-Jul-21 18:33N 41°09' E 002°22'1 0.5
2016-Jul-21 17:33N 41°09' E 002°23'1 0.5
2016-Jul-21 16:33N 41°09' E 002°23'1 0.5
2016-Jul-21 15:33N 41°09' E 002°24'4 3.5
2016-Jul-21 14:32N 41°11' E 002°20'2 1.9
2016-Jul-21 13:33N 41°12' E 002°20'1111.3
2016-Jul-21 12:33N 41°08' E 002°34'1515.0
2016-Jul-21 11:33N 41°00' E 002°51'1615.5
2016-Jul-21 10:33N 40°53' E 003°09'1716.5
2016-Jul-21 09:33N 40°45' E 003°29'1816.7
2016-Jul-21 08:28N 40°36' E 003°49'10016.8
2016-Jul-21 02:33N 39°48' E 005°44'1717.0
2016-Jul-21 01:33N 39°40' E 006°03'12417.1
2016-Jul-20 18:18N 38°40' E 008°23'1216.3
2016-Jul-20 17:33N 38°34' E 008°37'1616.3
2016-Jul-20 16:33N 38°26' E 008°54'1716.8
2016-Jul-20 15:33N 38°18' E 009°13'1717.0
2016-Jul-20 14:33N 38°10' E 009°32'1716.9
2016-Jul-20 13:33N 38°02' E 009°51'1716.9
2016-Jul-20 12:33N 37°54' E 010°10'1716.7
2016-Jul-20 11:33N 37°47' E 010°29'1716.5
2016-Jul-20 10:33N 37°39' E 010°48'2016.8
2016-Jul-20 09:23N 37°29' E 011°09'1416.7
2016-Jul-20 08:33N 37°22' E 011°24'1717.5
2016-Jul-20 07:33N 37°14' E 011°44'1717.4
2016-Jul-20 06:34N 37°06' E 012°03'1717.4
2016-Jul-20 05:33N 36°58' E 012°23'  
2016-Jul-17 20:25N 32°09' E 030°30'3116.4
2016-Jul-17 18:32N 31°60' E 031°05'1615.9
2016-Jul-17 17:32N 31°55' E 031°23'1616.0
2016-Jul-17 16:33N 31°51' E 031°40'  
Track history (hours):
 
Tides and Currents Weather Stations Pressure Air Temp Water Temp Dewpoint Dewpoint Depression Visibility Wind Speed Wind Dir Waves Ship Positions

Sincerity Ace

Last reported at 2016-Jul-27 14:32 UTC. Time now 2016-Jul-27 15:22 UTC.
Position N 51°18' E 003°14'.

Length 200 m; draft 9.3 m.

Type: Cargo ship. MMSI: 351690000.

Date/timePositionNaut miles runAvg speedWind from/ knotsBaromVisibWave heightAir tempDewpointWater temp
2016-Jul-27 14:32N 51°18' E 003°14'0 0.0
2016-Jul-27 13:32N 51°18' E 003°14'0 0.0
2016-Jul-27 12:32N 51°18' E 003°14'0 0.0
2016-Jul-27 11:32N 51°18' E 003°14'0 0.0
2016-Jul-27 10:32N 51°18' E 003°14'0 0.0
2016-Jul-27 09:32N 51°18' E 003°14'0 0.0
2016-Jul-27 08:32N 51°18' E 003°14'0 0.0
2016-Jul-27 07:32N 51°18' E 003°14'0 0.0
2016-Jul-27 06:32N 51°18' E 003°14'0 0.0
2016-Jul-27 05:32N 51°18' E 003°14'2 1.6
2016-Jul-27 04:31N 51°20' E 003°13'1 1.2
2016-Jul-27 03:33N 51°21' E 003°12'1111.3
2016-Jul-27 02:34N 51°22' E 002°54'1111.4
2016-Jul-27 01:33N 51°22' E 002°36'1211.7
2016-Jul-27 00:33N 51°18' E 002°18'1515.1
2016-Jul-26 23:33N 51°11' E 001°57'1616.0
2016-Jul-26 22:33N 51°02' E 001°36'1716.6
2016-Jul-26 21:33N 50°47' E 001°24'3416.3
2016-Jul-26 19:28N 50°25' E 000°43'1617.0
2016-Jul-26 18:32N 50°21' E 000°19'1717.0
2016-Jul-26 17:33N 50°20' W 000°07'1716.9
2016-Jul-26 16:33N 50°20' W 000°34'2017.9
2016-Jul-26 15:24N 50°20' W 001°06'1719.0
2016-Jul-26 14:32N 50°21' W 001°32'1919.8
2016-Jul-26 13:33N 50°22' W 002°02'2020.4
2016-Jul-26 12:34N 50°23' W 002°34'1918.7
2016-Jul-26 11:34N 50°25' W 003°03'1515.3
2016-Jul-26 10:33N 50°24' W 003°27'10 9.5
2016-Jul-26 09:33N 50°15' W 003°28'1818.2
2016-Jul-26 08:33N 50°01' W 003°46'1818.1
2016-Jul-26 07:33N 49°48' W 004°06'7217.3
2016-Jul-26 03:23N 48°56' W 005°23'2015.3
2016-Jul-26 02:05N 48°40' W 005°42'914.7
2016-Jul-26 01:28N 48°33' W 005°49'3115.8
2016-Jul-25 23:32N 48°05' W 006°09'3316.6
2016-Jul-25 21:33N 47°36' W 006°32'51016.9
2016-Jul-24 15:25N 39°27' W 009°51'1517.3
2016-Jul-24 14:33N 39°12' W 009°51'1717.3
2016-Jul-24 13:33N 38°54' W 009°52'1717.4
2016-Jul-24 12:33N 38°37' W 009°50'1717.3
2016-Jul-24 11:33N 38°20' W 009°46'1717.5
2016-Jul-24 10:33N 38°03' W 009°40'1817.8
2016-Jul-24 09:33N 37°46' W 009°35'1817.6
2016-Jul-24 08:33N 37°29' W 009°30'2318.2
2016-Jul-24 07:16N 37°06' W 009°24'4516.5
2016-Jul-24 04:33N 36°37' W 008°41'1818.0
2016-Jul-24 03:33N 36°31' W 008°20'1818.2
2016-Jul-24 02:33N 36°25' W 007°58'12017.2
2016-Jul-23 19:34N 35°58' W 005°33'1616.4
2016-Jul-23 18:34N 36°03' W 005°14'12317.3
2016-Jul-23 11:25N 36°21' W 002°43'1517.8
2016-Jul-23 10:33N 36°23' W 002°24'5417.9
2016-Jul-23 07:31N 36°55' W 001°28'2519.0
2016-Jul-23 06:13N 37°12' W 001°06'3018.2
2016-Jul-23 04:33N 37°32' W 000°37'1818.3
2016-Jul-23 03:33N 37°46' W 000°23'2118.4
2016-Jul-23 02:23N 38°04' W 000°09'10417.7
2016-Jul-22 20:29N 39°34' E 000°59'1617.2
2016-Jul-22 19:33N 39°48' E 001°09'1717.4
2016-Jul-22 18:33N 40°04' E 001°19'1717.4
2016-Jul-22 17:33N 40°19' E 001°30'1717.2
2016-Jul-22 16:33N 40°34' E 001°41'1717.6
2016-Jul-22 15:33N 40°50' E 001°52'1817.5
2016-Jul-22 14:33N 41°05' E 002°03'1514.5
2016-Jul-22 13:33N 41°19' E 002°10'2 1.9
2016-Jul-22 12:32N 41°20' E 002°09'0 0.0
2016-Jul-22 11:26N 41°20' E 002°09'0 0.0
2016-Jul-22 08:14N 41°20' E 002°09'0 0.0
2016-Jul-22 07:32N 41°20' E 002°09'0 0.0
2016-Jul-22 04:26N 41°20' E 002°09'0 0.0
2016-Jul-22 03:23N 41°20' E 002°09'0 0.5
2016-Jul-22 02:33N 41°20' E 002°09'6 6.2
2016-Jul-22 01:33N 41°15' E 002°13'5 4.6
2016-Jul-22 00:33N 41°12' E 002°17'1 1.0
2016-Jul-21 23:33N 41°11' E 002°18'1 0.9
2016-Jul-21 22:33N 41°11' E 002°19'1 0.9
2016-Jul-21 21:33N 41°11' E 002°20'1 0.8
2016-Jul-21 20:33N 41°10' E 002°21'1 0.6
2016-Jul-21 19:33N 41°10' E 002°22'1 0.6
2016-Jul-21 18:33N 41°09' E 002°22'1 0.5
2016-Jul-21 17:33N 41°09' E 002°23'1 0.5
2016-Jul-21 16:33N 41°09' E 002°23'1 0.5
2016-Jul-21 15:33N 41°09' E 002°24'4 3.5
2016-Jul-21 14:32N 41°11' E 002°20'2 1.9
2016-Jul-21 13:33N 41°12' E 002°20'1111.3
2016-Jul-21 12:33N 41°08' E 002°34'1515.0
2016-Jul-21 11:33N 41°00' E 002°51'1615.5
2016-Jul-21 10:33N 40°53' E 003°09'1716.5
2016-Jul-21 09:33N 40°45' E 003°29'1816.7
2016-Jul-21 08:28N 40°36' E 003°49'10016.8
2016-Jul-21 02:33N 39°48' E 005°44'1717.0
2016-Jul-21 01:33N 39°40' E 006°03'12417.1
2016-Jul-20 18:18N 38°40' E 008°23'1216.3
2016-Jul-20 17:33N 38°34' E 008°37'1616.3
2016-Jul-20 16:33N 38°26' E 008°54'1716.8
2016-Jul-20 15:33N 38°18' E 009°13'1717.0
2016-Jul-20 14:33N 38°10' E 009°32'1716.9
2016-Jul-20 13:33N 38°02' E 009°51'1716.9
2016-Jul-20 12:33N 37°54' E 010°10'1716.7
2016-Jul-20 11:33N 37°47' E 010°29'1716.5
2016-Jul-20 10:33N 37°39' E 010°48'2016.8
2016-Jul-20 09:23N 37°29' E 011°09'1416.7
2016-Jul-20 08:33N 37°22' E 011°24'1717.5
2016-Jul-20 07:33N 37°14' E 011°44'1717.4
2016-Jul-20 06:34N 37°06' E 012°03'1717.4
2016-Jul-20 05:33N 36°58' E 012°23'  
2016-Jul-17 20:25N 32°09' E 030°30'3116.4
2016-Jul-17 18:32N 31°60' E 031°05'1615.9
2016-Jul-17 17:32N 31°55' E 031°23'1616.0
2016-Jul-17 16:33N 31°51' E 031°40'  

Dump ship's entire track history